Time;durP1;ratioP1;P1;durP2;ratioP2;P2;SDS_P1;SDS_P2;PMS_P1;PMS_P2;Temp;Humidity;BMP_temperature;BMP_pressure;BME280_temperature;BME280_humidity;BME280_pressure;Samples;Min_cycle;Max_cycle;Signal;HPM_P1;HPM_P2
2022/02/17 00:01:49;;;;;;;4.63;1.13;;;10.10;99.90;;;;;;6358942;22;20177;-95
2022/02/17 00:04:21;;;;;;;8.37;1.83;;;10.10;99.90;;;;;;6354452;22;20169;-92
2022/02/17 00:06:53;;;;;;;2.77;1.03;;;10.10;99.90;;;;;;6350518;22;20166;-94
2022/02/17 00:09:26;;;;;;;5.70;1.23;;;10.00;99.90;;;;;;6350051;22;20173;-94
2022/02/17 00:12:01;;;;;;;2.57;1.17;;;9.90;99.90;;;;;;6364869;22;20165;-94
2022/02/17 00:14:34;;;;;;;4.33;1.10;;;9.90;99.90;;;;;;6364303;22;20166;-93
2022/02/17 00:17:06;;;;;;;3.47;1.33;;;9.80;99.90;;;;;;6360036;22;20162;-94
2022/02/17 00:19:37;;;;;;;6.47;1.93;;;9.80;99.90;;;;;;6349055;22;20638;-91
2022/02/17 00:22:08;;;;;;;5.67;1.27;;;9.70;99.90;;;;;;6351694;22;20186;-92
2022/02/17 00:24:40;;;;;;;4.40;1.30;;;9.60;99.90;;;;;;6338055;22;20169;-92
2022/02/17 00:27:11;;;;;;;6.67;1.63;;;9.50;99.90;;;;;;6364137;22;20192;-94
2022/02/17 00:29:44;;;;;;;7.57;2.03;;;9.60;99.90;;;;;;6363034;22;20197;-92
2022/02/17 00:32:15;;;;;;;4.63;1.47;;;9.50;99.90;;;;;;6358146;22;20166;-92
2022/02/17 00:34:46;;;;;;;3.87;1.50;;;9.50;99.90;;;;;;6349812;22;20174;-93
2022/02/17 00:37:18;;;;;;;3.50;1.10;;;9.40;99.90;;;;;;6347004;22;20162;-94
2022/02/17 00:39:49;;;;;;;2.97;1.73;;;9.30;99.90;;;;;;6352291;22;20170;-95
2022/02/17 00:42:25;;;;;;;7.53;1.67;;;9.30;99.90;;;;;;6353670;22;20229;-94
2022/02/17 00:44:59;;;;;;;5.20;1.57;;;9.20;99.90;;;;;;6358610;22;20170;-94
2022/02/17 00:47:37;;;;;;;7.17;1.60;;;9.20;99.90;;;;;;6357524;22;20154;-94
2022/02/17 00:50:10;;;;;;;4.07;1.23;;;9.10;99.90;;;;;;6360079;22;20177;-94
2022/02/17 00:52:41;;;;;;;3.87;1.20;;;9.10;99.90;;;;;;6358391;22;20166;-94
2022/02/17 00:55:12;;;;;;;4.70;1.83;;;9.00;99.90;;;;;;6348232;22;20172;-95
2022/02/17 00:57:43;;;;;;;4.57;1.63;;;8.90;99.90;;;;;;6345743;22;20181;-94
2022/02/17 01:00:17;;;;;;;5.75;1.38;;;8.90;99.90;;;;;;6258383;22;1948690;-93
2022/02/17 01:02:48;;;;;;;4.70;1.50;;;8.80;99.90;;;;;;6346254;22;20207;-92
2022/02/17 01:05:20;;;;;;;7.40;1.83;;;8.80;99.90;;;;;;6345008;22;20182;-93
2022/02/17 01:07:52;;;;;;;5.07;1.60;;;8.70;99.90;;;;;;6343984;22;20189;-94
2022/02/17 01:10:22;;;;;;;5.70;1.87;;;8.50;99.90;;;;;;6345234;22;20197;-93
2022/02/17 01:12:54;;;;;;;4.73;1.53;;;8.50;99.90;;;;;;6358005;22;20228;-95
2022/02/17 01:15:29;;;;;;;4.93;1.90;;;8.40;99.90;;;;;;6358274;22;20174;-93
2022/02/17 01:18:00;;;;;;;4.87;2.10;;;8.30;99.90;;;;;;6358306;22;20166;-93
2022/02/17 01:20:34;;;;;;;4.33;1.80;;;8.30;99.90;;;;;;6359571;22;20162;-94
2022/02/17 01:23:06;;;;;;;5.33;1.97;;;8.30;99.90;;;;;;6359241;22;20166;-94
2022/02/17 01:25:37;;;;;;;5.30;1.83;;;8.20;99.90;;;;;;6356112;22;20204;-93
2022/02/17 01:28:08;;;;;;;6.57;1.90;;;8.20;99.90;;;;;;6354455;22;20181;-94
2022/02/17 01:30:42;;;;;;;6.80;1.80;;;8.10;99.90;;;;;;6358072;22;20219;-93
2022/02/17 01:33:12;;;;;;;4.23;1.70;;;7.90;99.90;;;;;;6357848;22;20170;-93
2022/02/17 01:35:45;;;;;;;6.13;2.00;;;7.80;99.90;;;;;;6358784;22;20157;-94
2022/02/17 01:38:16;;;;;;;6.63;2.17;;;7.70;99.90;;;;;;6359525;22;20169;-94
2022/02/17 01:40:48;;;;;;;7.07;1.47;;;7.60;99.90;;;;;;6355974;22;20174;-94
2022/02/17 01:43:20;;;;;;;3.97;1.53;;;7.60;99.90;;;;;;6360348;22;20166;-94
2022/02/17 01:45:53;;;;;;;5.53;1.70;;;7.50;99.90;;;;;;6360693;22;20581;-90
2022/02/17 01:48:25;;;;;;;8.33;1.73;;;7.40;99.90;;;;;;6358332;22;20228;-94
2022/02/17 01:53:25;;;;;;;4.93;1.67;;;7.30;99.90;;;;;;6319953;22;20179;-92
2022/02/17 01:55:58;;;;;;;5.20;1.80;;;7.20;99.90;;;;;;6316043;22;20173;-92
2022/02/17 01:58:31;;;;;;;4.37;1.90;;;7.10;99.90;;;;;;6325967;22;20178;-93
2022/02/17 02:01:08;;;;;;;6.07;2.37;;;7.00;99.90;;;;;;6326293;22;20193;-93
2022/02/17 02:03:40;;;;;;;10.37;2.50;;;6.90;99.90;;;;;;6329144;22;20201;-94
2022/02/17 02:06:11;;;;;;;7.80;2.37;;;6.80;99.90;;;;;;6331114;22;20248;-94
2022/02/17 02:08:45;;;;;;;9.07;2.63;;;6.80;99.90;;;;;;6328658;22;20248;-91
2022/02/17 02:11:16;;;;;;;6.00;2.30;;;6.70;99.90;;;;;;6327796;22;20202;-92
2022/02/17 02:13:47;;;;;;;9.00;2.23;;;6.60;99.90;;;;;;6299347;22;20220;-93
2022/02/17 02:16:21;;;;;;;6.43;2.10;;;6.50;99.90;;;;;;6325981;22;20192;-94
2022/02/17 02:18:54;;;;;;;6.20;2.30;;;6.50;99.90;;;;;;6329674;22;20174;-94
2022/02/17 02:21:27;;;;;;;5.17;2.27;;;6.40;99.90;;;;;;6333166;22;20232;-93
2022/02/17 02:24:03;;;;;;;7.57;2.20;;;6.40;99.90;;;;;;6333979;22;20170;-93
2022/02/17 02:26:35;;;;;;;9.30;2.50;;;6.30;99.90;;;;;;6332567;22;20180;-93
2022/02/17 02:29:08;;;;;;;6.10;2.30;;;6.30;99.90;;;;;;6335416;22;20202;-93
2022/02/17 02:31:51;;;;;;;5.37;2.50;;;6.30;99.90;;;;;;6335749;22;20159;-91
2022/02/17 02:34:22;;;;;;;7.83;2.23;;;6.20;99.90;;;;;;6335293;22;20289;-92
2022/02/17 02:36:56;;;;;;;10.87;2.50;;;6.10;99.90;;;;;;6333354;22;20158;-93
2022/02/17 02:39:27;;;;;;;4.97;2.10;;;6.10;99.90;;;;;;6334168;22;20165;-93
2022/02/17 02:42:17;;;;;;;8.20;2.23;;;6.10;99.90;;;;;;6327069;22;20167;-92
2022/02/17 02:44:49;;;;;;;5.43;2.23;;;6.00;99.90;;;;;;6329492;22;20169;-93
2022/02/17 02:47:21;;;;;;;6.93;2.50;;;6.00;99.90;;;;;;6327921;22;20205;-94
2022/02/17 02:49:52;;;;;;;4.93;2.40;;;5.90;99.90;;;;;;6328438;22;20260;-93
2022/02/17 02:52:25;;;;;;;7.00;2.50;;;5.90;99.90;;;;;;6329092;22;20217;-92
2022/02/17 02:54:57;;;;;;;9.30;2.33;;;5.80;99.90;;;;;;6326312;22;20180;-93
2022/02/17 02:57:29;;;;;;;6.53;2.37;;;5.80;99.90;;;;;;6328778;22;20171;-94
2022/02/17 03:00:00;;;;;;;10.50;2.60;;;5.70;99.90;;;;;;6334198;22;20189;-92
2022/02/17 03:02:31;;;;;;;6.63;2.17;;;5.70;99.90;;;;;;6308528;22;20177;-92
2022/02/17 03:05:03;;;;;;;5.67;2.23;;;5.60;99.90;;;;;;6334951;22;20181;-88
2022/02/17 03:07:37;;;;;;;9.60;3.17;;;5.60;99.90;;;;;;6331163;22;20166;-94
2022/02/17 03:10:09;;;;;;;7.77;2.77;;;5.60;99.90;;;;;;6331802;22;20193;-92
2022/02/17 03:12:42;;;;;;;9.37;2.70;;;5.60;99.90;;;;;;6320274;22;20210;-94
2022/02/17 03:15:13;;;;;;;5.53;2.70;;;5.60;99.90;;;;;;6331576;22;20161;-93
2022/02/17 03:17:45;;;;;;;9.30;2.93;;;5.60;99.90;;;;;;6338128;22;20257;-92
2022/02/17 03:20:16;;;;;;;6.83;2.73;;;5.60;99.90;;;;;;6311184;22;20192;-93
2022/02/17 03:22:56;;;;;;;8.47;3.23;;;5.60;99.90;;;;;;6338248;22;20170;-92
2022/02/17 03:25:27;;;;;;;9.93;3.50;;;5.50;99.90;;;;;;6335176;22;20165;-92
2022/02/17 03:27:58;;;;;;;10.53;3.47;;;5.50;99.90;;;;;;6335588;22;20196;-91
2022/02/17 03:30:30;;;;;;;8.33;2.70;;;5.50;99.90;;;;;;6335334;22;20190;-93
2022/02/17 03:33:03;;;;;;;8.00;2.57;;;5.40;99.90;;;;;;6334420;22;20182;-93
2022/02/17 03:35:34;;;;;;;6.93;2.57;;;5.40;99.90;;;;;;6305222;22;20171;-93
2022/02/17 03:38:08;;;;;;;7.60;3.20;;;5.40;99.90;;;;;;6305429;22;20189;-93
2022/02/17 03:40:38;;;;;;;13.43;5.60;;;5.20;99.90;;;;;;6335870;22;20244;-91
2022/02/17 03:43:09;;;;;;;14.40;7.40;;;5.20;99.90;;;;;;6311180;22;20192;-91
2022/02/17 03:45:40;;;;;;;11.47;5.43;;;5.20;99.90;;;;;;6336897;22;20159;-94
2022/02/17 03:48:11;;;;;;;13.37;4.60;;;5.20;99.90;;;;;;6335422;22;20171;-92
2022/02/17 03:50:42;;;;;;;5.83;3.17;;;5.20;99.90;;;;;;6336090;22;20175;-93
2022/02/17 03:53:15;;;;;;;6.37;3.30;;;5.20;99.90;;;;;;6334825;22;20205;-92
2022/02/17 03:55:46;;;;;;;10.27;3.30;;;5.10;99.90;;;;;;6332191;22;20174;-92
2022/02/17 04:01:02;;;;;;;5.60;2.70;;;5.00;99.90;;;;;;6327401;22;20174;-93
2022/02/17 04:03:33;;;;;;;9.17;2.57;;;5.10;99.90;;;;;;6325626;22;20476;-94
2022/02/17 04:06:04;;;;;;;9.73;3.00;;;5.00;99.90;;;;;;6323547;22;20178;-92
2022/02/17 04:08:38;;;;;;;6.30;2.90;;;5.00;99.90;;;;;;6332787;22;20177;-92
2022/02/17 04:11:10;;;;;;;7.90;2.73;;;5.00;99.90;;;;;;6332957;22;20206;-93
2022/02/17 04:13:41;;;;;;;8.90;2.63;;;5.00;99.90;;;;;;6329692;22;20202;-93
2022/02/17 04:16:15;;;;;;;7.80;2.83;;;5.00;99.90;;;;;;6334817;22;20162;-92
2022/02/17 04:18:47;;;;;;;7.77;2.93;;;5.00;99.90;;;;;;6335368;22;20178;-93
2022/02/17 04:21:19;;;;;;;5.97;2.60;;;5.00;99.90;;;;;;6333769;22;20155;-93
2022/02/17 04:23:53;;;;;;;6.93;2.30;;;5.10;99.90;;;;;;6300799;22;20166;-94
2022/02/17 04:26:24;;;;;;;7.23;2.80;;;5.00;99.90;;;;;;6329717;22;20167;-93
2022/02/17 04:28:55;;;;;;;9.47;3.23;;;5.00;99.90;;;;;;6330392;22;20217;-93
2022/02/17 04:31:27;;;;;;;9.37;2.93;;;5.00;99.90;;;;;;6330948;22;20224;-94
2022/02/17 04:33:59;;;;;;;6.10;2.87;;;5.00;99.90;;;;;;6330910;22;20181;-93
2022/02/17 04:36:32;;;;;;;8.57;3.30;;;5.00;99.90;;;;;;6331299;22;20226;-92
2022/02/17 04:39:06;;;;;;;9.13;3.80;;;5.00;99.90;;;;;;6320530;22;20235;-92
2022/02/17 04:44:25;;;;;;;7.43;3.97;;;4.90;99.90;;;;;;6336270;22;20173;-92
2022/02/17 04:46:57;;;;;;;10.33;4.77;;;4.90;99.90;;;;;;6335706;22;20202;-93
2022/02/17 04:49:28;;;;;;;9.80;4.17;;;4.90;99.90;;;;;;6329387;22;20169;-92
2022/02/17 04:54:37;;;;;;;10.83;4.57;;;4.80;99.90;;;;;;6343453;22;20257;-91
2022/02/17 04:57:09;;;;;;;8.40;4.67;;;4.80;99.90;;;;;;6328805;22;20169;-93
2022/02/17 04:59:39;;;;;;;9.63;4.23;;;4.80;99.90;;;;;;6330166;22;20167;-92
2022/02/17 05:02:13;;;;;;;10.07;4.47;;;4.80;99.90;;;;;;6333842;22;20154;-92
2022/02/17 05:04:44;;;;;;;9.23;4.40;;;4.90;99.90;;;;;;6333952;22;20178;-94
2022/02/17 05:18:03;;;;;;;9.53;4.87;;;5.00;99.90;;;;;;6334764;22;20231;-93
2022/02/17 05:20:39;;;;;;;8.37;4.67;;;5.00;99.90;;;;;;6336192;22;20154;-92
2022/02/17 05:25:49;;;;;;;7.50;4.37;;;5.10;99.90;;;;;;6335013;22;20205;-94
2022/02/17 05:28:20;;;;;;;12.53;3.90;;;5.10;99.90;;;;;;6330413;22;20189;-92
2022/02/17 05:30:50;;;;;;;10.80;3.40;;;5.10;99.90;;;;;;6331687;22;20181;-89
2022/02/17 05:33:23;;;;;;;11.33;3.97;;;5.10;99.90;;;;;;6332151;22;20185;-91
2022/02/17 05:35:55;;;;;;;6.23;3.40;;;5.10;99.90;;;;;;6330544;22;20167;-92
2022/02/17 05:38:26;;;;;;;8.60;3.30;;;5.20;99.90;;;;;;6320125;22;20208;-86
2022/02/17 05:40:57;;;;;;;7.70;3.77;;;5.10;99.90;;;;;;6330764;22;20604;-92
2022/02/17 05:43:28;;;;;;;12.47;3.30;;;5.20;99.90;;;;;;6329878;22;20174;-92
2022/02/17 05:45:59;;;;;;;9.10;3.43;;;5.10;99.90;;;;;;6330449;22;20188;-92
2022/02/17 05:48:39;;;;;;;5.63;2.90;;;5.10;99.90;;;;;;6330935;22;20171;-92
2022/02/17 05:51:11;;;;;;;7.23;3.03;;;5.10;99.90;;;;;;6333883;22;20254;-92
2022/02/17 05:53:42;;;;;;;10.63;2.77;;;5.20;99.90;;;;;;6332147;22;20165;-91
2022/02/17 05:56:14;;;;;;;5.43;2.47;;;5.30;99.90;;;;;;6327792;22;20289;-92
2022/02/17 06:01:21;;;;;;;9.67;3.13;;;5.30;99.90;;;;;;6330615;22;20211;-93
2022/02/17 06:03:54;;;;;;;7.93;2.83;;;5.40;99.90;;;;;;6324916;22;20205;-92
2022/02/17 06:06:26;;;;;;;6.30;2.53;;;5.40;99.90;;;;;;6321423;22;20245;-91
2022/02/17 06:08:56;;;;;;;6.73;2.50;;;5.50;99.90;;;;;;6329931;22;20179;-92
2022/02/17 06:11:29;;;;;;;5.87;2.47;;;5.50;99.90;;;;;;6328778;22;20209;-93
2022/02/17 06:13:59;;;;;;;4.77;2.90;;;5.50;99.90;;;;;;6332350;22;20173;-93
2022/02/17 06:16:31;;;;;;;7.97;2.60;;;5.60;99.90;;;;;;6331760;22;20170;-93
2022/02/17 06:19:04;;;;;;;6.23;3.27;;;5.60;99.90;;;;;;6333212;22;20182;-93
2022/02/17 06:21:35;;;;;;;8.03;3.60;;;5.50;99.90;;;;;;6328293;22;20268;-92
2022/02/17 06:24:07;;;;;;;7.87;3.10;;;5.50;99.90;;;;;;6326655;22;20174;-93
2022/02/17 06:26:37;;;;;;;10.37;3.10;;;5.60;99.90;;;;;;6321352;22;20173;-92
2022/02/17 06:29:08;;;;;;;8.63;3.53;;;5.60;99.90;;;;;;6317092;22;20196;-88
2022/02/17 06:31:40;;;;;;;8.80;3.50;;;5.60;99.90;;;;;;6316465;22;20190;-92
2022/02/17 06:34:13;;;;;;;6.40;3.20;;;5.60;99.90;;;;;;6315340;22;20174;-92
2022/02/17 06:36:44;;;;;;;9.77;3.67;;;5.60;99.90;;;;;;6321240;22;20166;-92
2022/02/17 06:39:16;;;;;;;13.10;3.33;;;5.60;99.90;;;;;;6323261;22;20200;-93
2022/02/17 06:41:47;;;;;;;7.80;3.10;;;5.60;99.90;;;;;;6324729;22;20166;-93
2022/02/17 06:44:18;;;;;;;7.07;3.30;;;5.60;99.90;;;;;;6322363;22;20170;-93
2022/02/17 06:46:49;;;;;;;7.73;3.53;;;5.60;99.90;;;;;;6324456;22;20272;-94
2022/02/17 06:49:23;;;;;;;6.63;3.07;;;5.60;99.90;;;;;;6292773;22;20169;-92
2022/02/17 06:51:54;;;;;;;6.17;3.10;;;5.70;99.90;;;;;;6320509;22;20190;-93
2022/02/17 06:54:25;;;;;;;5.97;2.90;;;5.60;99.90;;;;;;6320994;22;20173;-93
2022/02/17 06:59:28;;;;;;;5.93;2.43;;;5.60;99.90;;;;;;6332677;22;20230;-93
2022/02/17 07:01:59;;;;;;;5.27;2.63;;;5.60;99.90;;;;;;6330169;22;20201;-92
2022/02/17 07:04:33;;;;;;;9.13;2.67;;;5.60;99.90;;;;;;6292905;22;20178;-93
2022/02/17 07:07:05;;;;;;;6.87;2.63;;;5.60;99.90;;;;;;6315323;22;20159;-94
2022/02/17 07:09:36;;;;;;;4.90;2.50;;;5.60;99.90;;;;;;6316452;22;20178;-91
2022/02/17 07:12:08;;;;;;;5.03;2.40;;;5.60;99.90;;;;;;6318066;22;20183;-92
2022/02/17 07:14:40;;;;;;;4.57;2.40;;;5.60;99.90;;;;;;6317952;22;20196;-92
2022/02/17 07:17:11;;;;;;;5.37;1.90;;;5.60;99.90;;;;;;6316034;22;20178;-92
2022/02/17 07:19:44;;;;;;;7.00;2.70;;;5.70;99.90;;;;;;6315545;22;20179;-92
2022/02/17 07:22:16;;;;;;;6.13;2.60;;;5.70;99.90;;;;;;6313890;22;20174;-92
2022/02/17 07:24:48;;;;;;;5.67;2.50;;;5.60;99.90;;;;;;6316383;22;20162;-92
2022/02/17 07:27:20;;;;;;;8.23;2.93;;;5.60;99.90;;;;;;6314363;22;20193;-93
2022/02/17 07:29:53;;;;;;;5.33;2.17;;;5.50;99.90;;;;;;6313805;22;20167;-94
2022/02/17 07:32:25;;;;;;;6.43;2.83;;;5.50;99.90;;;;;;6317126;22;20631;-92
2022/02/17 07:34:58;;;;;;;6.17;2.60;;;5.50;99.90;;;;;;6314242;22;20258;-93
2022/02/17 07:37:29;;;;;;;8.60;3.20;;;5.40;99.90;;;;;;6313277;22;20531;-92
2022/02/17 07:40:02;;;;;;;8.57;3.83;;;5.40;99.90;;;;;;6311614;22;20178;-93
2022/02/17 07:42:35;;;;;;;8.53;3.67;;;5.40;99.90;;;;;;6314836;22;20178;-92
2022/02/17 07:45:09;;;;;;;7.63;3.57;;;5.40;99.90;;;;;;6313222;22;20217;-93
2022/02/17 07:47:45;;;;;;;8.80;3.67;;;5.40;99.90;;;;;;6312976;22;20194;-94
2022/02/17 07:50:20;;;;;;;6.00;3.33;;;5.40;99.90;;;;;;6313087;22;20231;-92
2022/02/17 07:52:53;;;;;;;7.30;2.97;;;5.50;99.90;;;;;;6312048;22;20267;-93
2022/02/17 07:55:27;;;;;;;6.77;3.17;;;5.50;99.90;;;;;;6285771;22;20959;-92
2022/02/17 07:58:02;;;;;;;8.57;3.20;;;5.50;99.90;;;;;;6315424;22;20186;-92
2022/02/17 08:00:33;;;;;;;7.87;2.80;;;5.40;99.90;;;;;;6314127;22;20189;-93
2022/02/17 08:03:07;;;;;;;6.80;2.60;;;5.40;99.90;;;;;;6289681;22;20162;-91
2022/02/17 08:05:40;;;;;;;6.93;3.70;;;5.50;99.90;;;;;;6315640;22;20178;-92
2022/02/17 08:08:13;;;;;;;10.17;3.40;;;5.40;99.90;;;;;;6314100;22;20178;-92
2022/02/17 08:10:45;;;;;;;9.93;3.27;;;5.40;99.90;;;;;;6315213;22;20500;-93
2022/02/17 08:13:18;;;;;;;5.90;3.20;;;5.60;99.90;;;;;;6319384;22;20202;-93
2022/02/17 08:15:50;;;;;;;8.30;3.00;;;5.50;99.90;;;;;;6315338;22;20194;-92
2022/02/17 08:18:23;;;;;;;7.67;2.90;;;5.50;99.90;;;;;;6332601;22;20193;-92
2022/02/17 08:20:57;;;;;;;11.23;3.60;;;5.50;99.90;;;;;;6328743;22;20169;-95
2022/02/17 08:23:30;;;;;;;6.80;3.00;;;5.40;99.90;;;;;;6332357;22;20211;-93
2022/02/17 08:26:02;;;;;;;5.67;2.90;;;5.50;99.90;;;;;;6326076;22;20178;-92
2022/02/17 08:28:34;;;;;;;7.73;3.17;;;5.50;99.90;;;;;;6325894;22;20170;-93
2022/02/17 08:31:05;;;;;;;6.90;3.13;;;5.60;99.90;;;;;;6317558;22;20186;-92
2022/02/17 08:33:37;;;;;;;7.87;3.20;;;5.60;99.90;;;;;;6329781;22;20209;-94
2022/02/17 08:36:11;;;;;;;5.60;3.20;;;5.50;99.90;;;;;;6323971;22;20178;-92
2022/02/17 08:38:43;;;;;;;9.30;3.80;;;5.50;99.90;;;;;;6328505;22;20193;-93
2022/02/17 08:41:15;;;;;;;5.27;2.87;;;5.40;99.90;;;;;;6329017;22;20159;-93
2022/02/17 08:43:49;;;;;;;7.13;2.90;;;5.50;99.90;;;;;;6320638;22;20162;-91
2022/02/17 08:46:21;;;;;;;6.73;3.30;;;5.50;99.90;;;;;;6313615;22;20213;-94
2022/02/17 08:48:53;;;;;;;10.10;3.00;;;5.60;99.90;;;;;;6316677;22;20584;-92
2022/02/17 08:51:29;;;;;;;10.03;3.27;;;5.60;99.90;;;;;;6322512;22;20174;-93
2022/02/17 08:54:01;;;;;;;8.57;3.10;;;5.60;99.90;;;;;;6297098;22;20221;-92
2022/02/17 08:56:32;;;;;;;9.17;3.43;;;5.60;99.90;;;;;;6321298;22;20229;-93
2022/02/17 08:59:03;;;;;;;8.90;2.87;;;5.60;99.90;;;;;;6315982;22;20182;-92
2022/02/17 09:01:34;;;;;;;8.83;3.37;;;5.50;99.90;;;;;;6315903;22;20216;-92
2022/02/17 09:04:06;;;;;;;7.23;3.53;;;5.50;99.90;;;;;;6314445;22;20182;-92
2022/02/17 09:06:38;;;;;;;8.27;3.30;;;5.50;99.90;;;;;;6323698;22;20166;-95
2022/02/17 09:09:09;;;;;;;6.83;2.90;;;5.60;99.90;;;;;;6331977;22;20163;-92
2022/02/17 09:11:40;;;;;;;6.20;2.70;;;5.60;99.90;;;;;;6333689;22;20158;-90
2022/02/17 09:14:11;;;;;;;7.33;3.40;;;5.60;99.90;;;;;;6319880;22;20191;-93
2022/02/17 09:16:42;;;;;;;7.27;3.07;;;5.70;99.90;;;;;;6315490;22;20180;-96
2022/02/17 09:19:13;;;;;;;8.33;2.77;;;5.70;99.90;;;;;;6315497;22;20179;-93
2022/02/17 09:21:46;;;;;;;8.30;3.30;;;5.70;99.90;;;;;;6316348;22;20166;-92
2022/02/17 09:24:17;;;;;;;7.33;3.00;;;5.70;99.90;;;;;;6318778;22;20224;-92
2022/02/17 09:26:49;;;;;;;5.73;2.90;;;5.70;99.90;;;;;;6318057;22;20183;-93
2022/02/17 09:29:20;;;;;;;8.73;2.70;;;5.70;99.90;;;;;;6316115;22;20170;-94
2022/02/17 09:32:11;;;;;;;5.20;2.60;;;5.70;99.90;;;;;;6292993;22;20205;-93
2022/02/17 09:34:42;;;;;;;7.90;2.77;;;5.80;99.90;;;;;;6313105;22;20598;-92
2022/02/17 09:37:15;;;;;;;8.20;3.00;;;5.70;99.90;;;;;;6288431;22;20178;-93
2022/02/17 09:39:47;;;;;;;5.17;2.43;;;5.70;99.90;;;;;;6315195;22;20507;-92
2022/02/17 09:42:18;;;;;;;5.63;2.07;;;5.70;99.90;;;;;;6314258;22;20659;-93
2022/02/17 09:44:49;;;;;;;5.27;2.20;;;5.70;99.90;;;;;;6314166;22;20174;-93
2022/02/17 09:47:32;;;;;;;4.53;2.03;;;5.80;99.90;;;;;;6313078;22;20193;-93
2022/02/17 09:50:06;;;;;;;5.27;1.97;;;5.90;99.90;;;;;;6328211;22;20182;-94
2022/02/17 09:52:39;;;;;;;10.07;2.07;;;6.10;99.90;;;;;;6326038;22;20178;-93
2022/02/17 09:55:11;;;;;;;9.30;2.87;;;6.20;99.90;;;;;;6324629;22;20198;-93
2022/02/17 09:57:42;;;;;;;8.93;2.43;;;6.20;99.90;;;;;;6323599;22;20197;-93
2022/02/17 10:00:15;;;;;;;5.47;2.10;;;6.20;99.90;;;;;;6324744;22;20177;-92
2022/02/17 10:02:47;;;;;;;10.17;2.47;;;6.30;99.90;;;;;;6295484;22;20601;-93
2022/02/17 10:05:18;;;;;;;5.73;2.30;;;6.20;99.90;;;;;;6313619;22;20170;-93
2022/02/17 10:07:51;;;;;;;6.40;2.73;;;6.20;99.90;;;;;;6312089;22;20209;-93
2022/02/17 10:10:23;;;;;;;6.43;2.40;;;6.10;99.90;;;;;;6313350;22;20262;-92
2022/02/17 10:12:56;;;;;;;6.57;2.40;;;6.10;99.90;;;;;;6313764;22;20216;-93
2022/02/17 10:15:32;;;;;;;10.57;3.30;;;6.10;99.90;;;;;;6313354;22;20171;-92
2022/02/17 10:18:08;;;;;;;9.07;2.43;;;6.10;99.90;;;;;;6311970;22;20213;-92
2022/02/17 10:21:13;;;;;;;8.87;2.40;;;6.10;99.90;;;;;;6313517;22;20168;-93
2022/02/17 10:23:48;;;;;;;6.50;2.60;;;6.20;99.90;;;;;;6218235;23;20651;-92
2022/02/17 10:26:21;;;;;;;8.20;2.30;;;6.10;99.90;;;;;;6300456;22;20182;-92
2022/02/17 10:31:48;;;;;;;8.93;2.47;;;6.20;99.90;;;;;;6299690;22;20203;-93
2022/02/17 10:34:21;;;;;;;11.00;2.50;;;6.20;99.90;;;;;;6297127;22;20195;-92
2022/02/17 10:36:58;;;;;;;9.80;2.43;;;6.20;99.90;;;;;;6295938;22;20191;-93
2022/02/17 10:39:37;;;;;;;6.73;2.17;;;6.20;99.90;;;;;;6296041;22;20187;-92
2022/02/17 10:42:10;;;;;;;7.73;2.30;;;6.20;99.90;;;;;;6282993;22;20209;-93
2022/02/17 10:44:44;;;;;;;7.33;2.43;;;6.20;99.90;;;;;;6281924;22;20562;-93
2022/02/17 10:47:17;;;;;;;5.43;2.00;;;6.20;99.90;;;;;;6278669;22;20194;-93
2022/02/17 10:49:49;;;;;;;8.30;2.60;;;6.10;99.90;;;;;;6281551;22;20168;-92
2022/02/17 10:52:31;;;;;;;6.30;2.20;;;6.20;99.90;;;;;;6285316;22;20174;-92
2022/02/17 10:55:20;;;;;;;9.67;2.77;;;6.10;99.90;;;;;;6286866;22;20199;-92
2022/02/17 10:57:51;;;;;;;10.23;2.57;;;6.20;99.90;;;;;;6281161;22;20167;-93
2022/02/17 11:00:24;;;;;;;11.60;2.90;;;6.10;99.90;;;;;;6282061;22;20614;-94
2022/02/17 11:02:56;;;;;;;9.63;2.40;;;6.10;99.90;;;;;;6281470;22;20171;-93
2022/02/17 11:05:27;;;;;;;16.83;3.20;;;6.10;99.90;;;;;;6280963;22;20186;-93
2022/02/17 11:08:00;;;;;;;9.80;2.57;;;6.10;99.90;;;;;;6281841;22;20205;-92
2022/02/17 11:10:35;;;;;;;13.97;2.77;;;6.00;99.90;;;;;;6285608;22;20171;-92
2022/02/17 11:13:06;;;;;;;8.80;2.67;;;6.00;99.90;;;;;;6284380;22;20252;-93
2022/02/17 11:15:41;;;;;;;8.90;2.83;;;6.00;99.90;;;;;;6293612;22;20186;-92
2022/02/17 11:18:12;;;;;;;13.10;2.83;;;6.00;99.90;;;;;;6301035;22;20173;-91
2022/02/17 11:20:45;;;;;;;11.03;3.23;;;5.90;99.90;;;;;;6338427;22;20213;-92
2022/02/17 11:23:20;;;;;;;10.07;2.70;;;5.90;99.90;;;;;;6355372;22;20553;-92
2022/02/17 11:25:53;;;;;;;10.30;2.63;;;5.80;99.90;;;;;;6348362;22;20169;-93
2022/02/17 11:28:34;;;;;;;8.60;2.90;;;5.80;99.90;;;;;;6362549;22;20153;-92
2022/02/17 11:31:11;;;;;;;6.53;2.30;;;5.80;99.90;;;;;;6353164;22;20389;-93
2022/02/17 11:33:43;;;;;;;10.97;2.63;;;5.70;99.90;;;;;;6346034;22;20216;-95
2022/02/17 11:36:40;;;;;;;7.03;2.77;;;5.60;99.90;;;;;;6346397;22;20174;-95
2022/02/17 11:39:11;;;;;;;12.83;2.70;;;5.60;99.90;;;;;;6292649;22;20522;-93
2022/02/17 11:41:48;;;;;;;6.77;2.73;;;5.50;99.90;;;;;;6344757;22;20174;-94
2022/02/17 11:44:21;;;;;;;11.23;3.00;;;5.50;99.90;;;;;;6321352;22;20173;-96
2022/02/17 11:46:54;;;;;;;9.33;3.23;;;5.50;99.90;;;;;;6346354;22;20216;-92
2022/02/17 11:49:50;;;;;;;8.30;3.30;;;5.50;99.90;;;;;;6345697;22;20166;-93
2022/02/17 11:52:22;;;;;;;12.37;3.10;;;5.50;99.90;;;;;;6344015;22;20173;-95
2022/02/17 11:55:24;;;;;;;9.73;2.87;;;5.60;99.90;;;;;;6344500;22;20222;-94
2022/02/17 11:57:57;;;;;;;9.47;2.80;;;5.60;99.90;;;;;;6343723;22;20181;-94
2022/02/17 12:00:36;;;;;;;4.80;2.53;;;5.60;99.90;;;;;;6343987;22;20174;-93
2022/02/17 12:03:07;;;;;;;6.73;2.80;;;5.60;99.90;;;;;;6344529;22;20172;-93
2022/02/17 12:05:38;;;;;;;8.63;2.77;;;5.60;99.90;;;;;;6344362;22;20746;-92
2022/02/17 12:08:29;;;;;;;9.97;2.93;;;5.70;99.90;;;;;;6343433;22;20664;-93
2022/02/17 12:11:31;;;;;;;11.67;2.97;;;5.70;99.90;;;;;;6344335;22;20200;-92
2022/02/17 12:14:07;;;;;;;9.97;3.00;;;5.70;99.90;;;;;;6355196;22;20165;-94
2022/02/17 12:16:39;;;;;;;12.40;3.07;;;5.70;99.90;;;;;;6343430;22;20172;-93
2022/02/17 12:19:15;;;;;;;10.73;3.20;;;5.70;99.90;;;;;;6344473;22;20166;-92
2022/02/17 12:21:48;;;;;;;9.63;2.63;;;5.70;99.90;;;;;;6343922;22;20161;-92
2022/02/17 12:24:20;;;;;;;14.47;3.17;;;5.70;99.90;;;;;;6346492;22;20166;-92
2022/02/17 12:26:53;;;;;;;11.77;3.23;;;5.80;99.90;;;;;;6342623;22;20194;-94
2022/02/17 12:29:33;;;;;;;12.63;3.03;;;5.80;99.90;;;;;;6344141;22;20179;-91
2022/02/17 12:32:07;;;;;;;11.57;3.20;;;5.80;99.90;;;;;;6343510;22;20652;-92
2022/02/17 12:34:42;;;;;;;11.37;2.80;;;5.80;99.90;;;;;;6343335;22;20634;-93
2022/02/17 12:37:18;;;;;;;8.87;2.63;;;5.80;99.90;;;;;;6344109;22;20512;-92
2022/02/17 12:39:51;;;;;;;7.40;2.63;;;5.80;99.90;;;;;;6351868;22;20177;-92
2022/02/17 12:42:24;;;;;;;11.37;2.87;;;5.90;99.90;;;;;;6344548;22;20197;-92
2022/02/17 12:44:57;;;;;;;10.97;3.20;;;5.80;99.90;;;;;;6318498;22;20178;-93
2022/02/17 12:47:28;;;;;;;13.20;3.67;;;5.80;99.90;;;;;;6343507;22;20162;-93
2022/02/17 12:50:06;;;;;;;13.83;4.10;;;5.80;99.90;;;;;;6316449;22;20173;-93
2022/02/17 12:52:37;;;;;;;9.97;3.37;;;5.80;99.90;;;;;;6346392;22;20162;-93
2022/02/17 12:55:10;;;;;;;9.83;2.70;;;5.80;99.90;;;;;;6343826;22;20194;-94
2022/02/17 12:57:41;;;;;;;13.13;3.20;;;5.80;99.90;;;;;;6344703;22;20193;-94
2022/02/17 13:00:17;;;;;;;12.10;3.07;;;5.80;99.90;;;;;;6347962;22;20212;-93
2022/02/17 13:02:49;;;;;;;12.10;2.93;;;5.80;99.90;;;;;;6345260;22;20169;-94
2022/02/17 13:05:20;;;;;;;11.17;2.40;;;5.80;99.90;;;;;;6343274;22;20201;-94
2022/02/17 13:07:51;;;;;;;12.10;3.40;;;5.70;99.90;;;;;;6343009;22;20612;-95
2022/02/17 13:10:23;;;;;;;14.67;2.87;;;5.80;99.90;;;;;;6343990;22;20193;-94
2022/02/17 13:12:59;;;;;;;10.03;2.70;;;5.80;99.90;;;;;;6344524;22;20177;-92
2022/02/17 13:15:31;;;;;;;9.23;2.33;;;5.80;99.90;;;;;;6343601;22;20273;-93
2022/02/17 13:18:03;;;;;;;15.73;3.13;;;5.80;99.90;;;;;;6342417;22;20185;-93
2022/02/17 13:20:34;;;;;;;10.90;2.67;;;5.80;99.90;;;;;;6342948;22;20260;-92
2022/02/17 13:23:23;;;;;;;7.83;2.47;;;5.80;99.90;;;;;;6325372;22;20182;-91
2022/02/17 13:25:53;;;;;;;8.83;2.47;;;5.80;99.90;;;;;;6346657;22;20166;-92
2022/02/17 13:28:25;;;;;;;12.13;2.90;;;5.80;99.90;;;;;;6349682;22;20170;-92
2022/02/17 13:30:58;;;;;;;5.67;2.27;;;5.80;99.90;;;;;;6347677;22;20178;-93
2022/02/17 13:33:29;;;;;;;8.70;2.60;;;5.90;99.90;;;;;;6323081;22;20165;-92
2022/02/17 13:36:02;;;;;;;8.50;2.73;;;5.90;99.90;;;;;;6348959;22;20205;-93
2022/02/17 13:38:33;;;;;;;10.37;2.63;;;5.90;99.90;;;;;;6346714;22;20178;-93
2022/02/17 13:41:12;;;;;;;11.80;2.70;;;5.90;99.90;;;;;;6346480;22;20181;-93
2022/02/17 13:43:48;;;;;;;11.97;2.67;;;5.90;99.90;;;;;;6346135;22;20173;-91
2022/02/17 13:46:21;;;;;;;7.57;2.03;;;5.90;99.90;;;;;;6352567;22;20160;-92
2022/02/17 13:48:52;;;;;;;11.53;2.63;;;5.90;99.90;;;;;;6365430;22;20188;-92
2022/02/17 13:51:23;;;;;;;10.90;2.97;;;5.90;99.90;;;;;;6366093;22;20218;-93
2022/02/17 13:53:59;;;;;;;6.00;2.47;;;5.90;99.90;;;;;;6351697;22;20241;-92
2022/02/17 13:56:32;;;;;;;12.43;2.70;;;5.90;99.90;;;;;;6344606;22;20219;-91
2022/02/17 13:59:04;;;;;;;9.67;2.83;;;5.90;99.90;;;;;;6343289;22;20173;-92